createdAt,value
2017-04-22T00:00:02.794Z,98.37
2017-04-22T00:15:02.304Z,98.55
2017-04-22T00:30:02.954Z,98.7
2017-04-22T00:45:02.417Z,99.23
2017-04-22T01:00:02.904Z,99.44
2017-04-22T01:15:02.362Z,98.78
2017-04-22T01:30:03.017Z,98.27
2017-04-22T01:45:02.535Z,97.92
2017-04-22T02:00:02.115Z,98.31
2017-04-22T02:15:02.615Z,97.61
2017-04-22T02:30:02.293Z,96.73
2017-04-22T02:45:02.786Z,95.76
2017-04-22T03:00:02.331Z,95.69
2017-04-22T03:15:02.823Z,96.02
2017-04-22T03:30:02.488Z,96.43
2017-04-22T03:45:02.934Z,96.95
2017-04-22T04:00:02.572Z,96.92
2017-04-22T04:15:02.110Z,96.66
2017-04-22T04:30:02.785Z,96.15
2017-04-22T04:45:02.247Z,95.78
2017-04-22T05:00:02.729Z,94.84
2017-04-22T05:15:02.233Z,94.13
2017-04-22T05:30:02.723Z,89.97
2017-04-22T05:45:02.224Z,86.61
2017-04-22T06:00:02.717Z,86.94
2017-04-22T06:15:02.188Z,86.81
2017-04-22T06:30:02.836Z,84.48
2017-04-22T06:45:02.310Z,84.44
2017-04-22T07:00:02.791Z,80.77
2017-04-22T07:15:02.314Z,78.89
2017-04-22T07:30:02.254Z,77.88
2017-04-22T07:45:02.727Z,76.19
2017-04-22T08:00:02.196Z,73.49
2017-04-22T08:15:02.670Z,69.76
2017-04-22T08:30:02.331Z,67.5
2017-04-22T08:45:02.800Z,60.49
2017-04-22T09:00:02.236Z,59.46
2017-04-22T09:15:02.702Z,61.84
2017-04-22T09:30:02.425Z,71.1
2017-04-22T09:45:02.964Z,74.84
2017-04-22T10:00:02.965Z,66.83
2017-04-22T10:15:02.534Z,62.43
2017-04-22T10:30:02.361Z,69.23
2017-04-22T10:45:02.935Z,67.07
2017-04-22T11:00:02.552Z,61.25
2017-04-22T11:15:02.996Z,59.11
2017-04-22T11:30:02.784Z,63.58
2017-04-22T11:45:02.502Z,64.02
2017-04-22T12:00:02.039Z,65.92
2017-04-22T12:15:02.695Z,65.41
2017-04-22T12:30:02.416Z,65.11
2017-04-22T12:45:03.015Z,51.14
2017-04-22T13:00:02.569Z,47.62
2017-04-22T13:15:02.122Z,51.53
2017-04-22T13:30:02.943Z,54.38
2017-04-22T13:45:02.487Z,52.69
2017-04-22T14:00:02.269Z,51.02
2017-04-22T14:15:02.771Z,52.16
2017-04-22T14:30:02.589Z,52.37
2017-04-22T14:45:02.175Z,53.8
2017-04-22T15:00:02.770Z,52.86
2017-04-22T15:15:02.472Z,53.74
2017-04-22T15:30:02.637Z,52.73
2017-04-22T15:45:02.505Z,58.19
2017-04-22T16:00:02.702Z,61.02
2017-04-22T16:15:02.948Z,62.17
2017-04-22T16:30:02.296Z,63.71
2017-04-22T16:45:02.818Z,69.79
2017-04-22T17:00:02.270Z,76.48
2017-04-22T17:15:02.178Z,81.92
2017-04-22T17:30:02.241Z,84.06
2017-04-22T17:45:02.180Z,85.72
2017-04-22T18:00:02.455Z,86.08
2017-04-22T18:15:02.717Z,87.15
2017-04-22T18:30:02.026Z,81.73
2017-04-22T18:45:02.237Z,81.27
2017-04-22T19:00:02.861Z,81.64
2017-04-22T19:15:02.948Z,82.38
2017-04-22T19:30:02.698Z,80.8
2017-04-22T19:45:02.314Z,82.17
2017-04-22T20:00:02.821Z,82.44
2017-04-22T20:15:02.747Z,82.82
2017-04-22T20:30:02.523Z,83.55
2017-04-22T20:45:02.176Z,85.11
2017-04-22T21:00:02.176Z,86.4
2017-04-22T21:15:02.594Z,87.49
2017-04-22T21:30:02.290Z,87.42
2017-04-22T21:45:02.822Z,87.6
2017-04-22T22:00:02.310Z,87.91
2017-04-22T22:15:02.913Z,89.12
2017-04-22T22:30:02.626Z,90.5
2017-04-22T22:45:02.092Z,90.08
2017-04-22T23:00:02.652Z,89.92
2017-04-22T23:15:02.262Z,90.26
2017-04-22T23:30:03.011Z,91.15
2017-04-22T23:45:02.525Z,91.58
